createdAt,value
2018-04-29T00:00:19.183Z,100422.48
2018-04-29T00:02:45.063Z,100422.91
2018-04-29T00:05:10.906Z,100417.47
2018-04-29T00:07:36.738Z,100417.80
2018-04-29T00:10:02.665Z,100403.20
2018-04-29T00:12:28.524Z,100410.75
2018-04-29T00:14:54.383Z,100409.88
2018-04-29T00:17:20.228Z,100407.55
2018-04-29T00:19:46.096Z,100410.25
2018-04-29T00:22:11.936Z,100404.39
2018-04-29T00:24:37.803Z,100401.88
2018-04-29T00:27:03.652Z,100402.82
2018-04-29T00:29:29.484Z,100400.23
2018-04-29T00:31:55.378Z,100409.08
2018-04-29T00:34:21.221Z,100406.02
2018-04-29T00:36:47.096Z,100405.44
2018-04-29T00:39:12.953Z,100398.83
2018-04-29T00:41:38.828Z,100404.00
2018-04-29T00:44:04.696Z,100395.98
2018-04-29T00:46:30.551Z,100404.60
2018-04-29T00:48:56.372Z,100405.91
2018-04-29T00:51:24.132Z,100406.90
2018-04-29T00:53:49.983Z,100404.65
2018-04-29T00:56:15.829Z,100399.98
2018-04-29T00:58:41.676Z,100402.42
2018-04-29T01:01:07.538Z,100391.33
2018-04-29T01:03:33.381Z,100394.90
2018-04-29T01:05:59.295Z,100398.16
2018-04-29T01:08:25.136Z,100398.58
2018-04-29T01:10:50.994Z,100395.94
2018-04-29T01:13:16.863Z,100390.23
2018-04-29T01:15:42.711Z,100387.44
2018-04-29T01:18:08.560Z,100387.44
2018-04-29T01:20:34.418Z,100384.14
2018-04-29T01:23:00.278Z,100392.72
2018-04-29T01:25:26.118Z,100398.60
2018-04-29T01:27:51.967Z,100390.92
2018-04-29T01:30:17.826Z,100397.16
2018-04-29T01:32:43.679Z,100397.11
2018-04-29T01:35:09.513Z,100401.52
2018-04-29T01:37:35.397Z,100398.05
2018-04-29T01:40:01.262Z,100398.77
2018-04-29T01:42:27.077Z,100396.64
2018-04-29T01:44:52.975Z,100393.83
2018-04-29T01:47:18.827Z,100399.87
2018-04-29T01:49:44.684Z,100398.36
2018-04-29T01:52:10.519Z,100399.06
2018-04-29T01:54:36.388Z,100408.45
2018-04-29T01:57:02.240Z,100399.73
2018-04-29T01:59:28.105Z,100401.77
2018-04-29T02:01:53.936Z,100401.16
2018-04-29T02:04:19.799Z,100400.11
2018-04-29T02:06:45.655Z,100404.34
2018-04-29T02:09:11.504Z,100412.78
2018-04-29T02:11:37.356Z,100409.23
2018-04-29T02:14:03.223Z,100411.36
2018-04-29T02:16:29.065Z,100405.00
2018-04-29T02:18:54.925Z,100400.18
2018-04-29T02:21:20.779Z,100401.44
2018-04-29T02:23:46.630Z,100397.59
2018-04-29T02:26:12.445Z,100399.56
2018-04-29T02:28:38.308Z,100400.33
2018-04-29T02:31:04.167Z,100399.23
2018-04-29T02:33:30.020Z,100394.73
2018-04-29T02:35:55.856Z,100396.00
2018-04-29T02:38:21.699Z,100389.85
2018-04-29T02:40:47.650Z,100382.23
2018-04-29T02:43:13.448Z,100385.47
2018-04-29T02:45:39.326Z,100372.56
2018-04-29T02:48:05.171Z,100370.80
2018-04-29T02:50:31.040Z,100379.41
2018-04-29T02:52:56.893Z,100380.98
2018-04-29T02:55:22.757Z,100375.23
2018-04-29T02:57:48.595Z,100384.08
2018-04-29T03:00:14.463Z,100372.05
2018-04-29T03:02:40.297Z,100375.76
2018-04-29T03:05:06.180Z,100370.70
2018-04-29T03:07:32.049Z,100362.58
2018-04-29T03:09:57.942Z,100372.19
2018-04-29T03:12:23.775Z,100370.59
2018-04-29T03:14:49.638Z,100368.79
2018-04-29T03:17:15.507Z,100371.17
2018-04-29T03:19:42.121Z,100370.15
2018-04-29T03:22:07.983Z,100366.30
2018-04-29T03:24:33.855Z,100366.59
2018-04-29T03:26:59.711Z,100369.95
2018-04-29T03:29:25.547Z,100366.11
2018-04-29T03:31:51.419Z,100358.56
2018-04-29T03:34:17.250Z,100373.31
2018-04-29T03:36:43.102Z,100375.16
2018-04-29T03:39:08.938Z,100379.78
2018-04-29T03:41:34.815Z,100375.29
2018-04-29T03:44:00.667Z,100379.13
2018-04-29T03:46:26.556Z,100379.67
2018-04-29T03:48:52.397Z,100369.54
2018-04-29T03:51:18.253Z,100365.80
2018-04-29T03:53:44.137Z,100358.07
2018-04-29T03:56:09.969Z,100356.84
2018-04-29T03:58:48.346Z,100359.23
2018-04-29T04:01:26.732Z,100359.04
2018-04-29T04:03:57.623Z,100353.20
2018-04-29T04:06:23.523Z,100360.22
2018-04-29T04:08:49.349Z,100356.61
2018-04-29T04:11:15.197Z,100354.37
2018-04-29T04:13:41.062Z,100354.42
2018-04-29T04:16:06.920Z,100348.38
2018-04-29T04:18:32.784Z,100352.08
2018-04-29T04:20:58.638Z,100349.98
2018-04-29T04:23:24.473Z,100356.44
2018-04-29T04:25:50.323Z,100362.16
2018-04-29T04:28:16.180Z,100359.73
2018-04-29T04:30:42.051Z,100361.13
2018-04-29T04:33:07.910Z,100349.98
2018-04-29T04:35:33.772Z,100360.11
2018-04-29T04:37:59.635Z,100362.96
2018-04-29T04:40:25.495Z,100359.15
2018-04-29T04:42:51.359Z,100362.83
2018-04-29T04:45:17.218Z,100366.55
2018-04-29T04:47:43.095Z,100369.04
2018-04-29T04:50:08.941Z,100367.91
2018-04-29T04:52:34.795Z,100372.19
2018-04-29T04:55:00.623Z,100376.66
2018-04-29T04:57:26.469Z,100371.44
2018-04-29T04:59:52.316Z,100377.61
2018-04-29T05:02:18.206Z,100378.45
2018-04-29T05:04:44.062Z,100383.70
2018-04-29T05:07:09.919Z,100379.80
2018-04-29T05:09:35.766Z,100383.08
2018-04-29T05:12:01.602Z,100384.07
2018-04-29T05:14:27.450Z,100376.72
2018-04-29T05:16:53.297Z,100374.58
2018-04-29T05:19:19.149Z,100377.59
2018-04-29T05:21:45.011Z,100381.34
2018-04-29T05:24:10.896Z,100373.02
2018-04-29T05:26:36.744Z,100380.41
2018-04-29T05:29:02.610Z,100382.91
2018-04-29T05:31:28.474Z,100384.52
2018-04-29T05:33:54.346Z,100377.91
2018-04-29T05:36:20.196Z,100376.36
2018-04-29T05:38:46.040Z,100376.95
2018-04-29T05:41:11.903Z,100372.73
2018-04-29T05:43:37.755Z,100375.21
2018-04-29T05:46:03.586Z,100373.27
2018-04-29T05:48:29.433Z,100377.50
2018-04-29T05:53:48.495Z,100378.89
2018-04-29T05:56:14.355Z,100377.30
2018-04-29T05:58:40.201Z,100378.69
2018-04-29T06:01:06.064Z,100375.49
2018-04-29T06:03:31.940Z,100380.26
2018-04-29T06:05:57.783Z,100387.03
2018-04-29T06:08:23.626Z,100387.32
2018-04-29T06:10:49.499Z,100390.79
2018-04-29T06:13:15.349Z,100388.20
2018-04-29T06:15:41.241Z,100386.84
2018-04-29T06:18:07.688Z,100392.92
2018-04-29T06:20:33.622Z,100388.25
2018-04-29T06:22:59.473Z,100396.25
2018-04-29T06:25:25.345Z,100397.63
2018-04-29T06:27:51.212Z,100388.33
2018-04-29T06:30:17.121Z,100388.77
2018-04-29T06:32:42.980Z,100368.69
2018-04-29T06:35:08.866Z,100375.61
2018-04-29T06:37:34.733Z,100364.88
2018-04-29T06:40:00.607Z,100366.89
2018-04-29T06:42:26.510Z,100363.40
2018-04-29T06:44:52.917Z,100360.31
2018-04-29T06:47:18.795Z,100363.52
2018-04-29T06:49:44.667Z,100362.80
2018-04-29T06:52:10.548Z,100362.18
2018-04-29T06:54:36.451Z,100360.66
2018-04-29T06:57:02.335Z,100351.73
2018-04-29T06:59:28.207Z,100348.53
2018-04-29T07:01:54.167Z,100339.36
2018-04-29T07:04:20.111Z,100338.27
2018-04-29T07:06:45.990Z,100333.11
2018-04-29T07:09:11.870Z,100332.09
2018-04-29T07:11:37.720Z,100333.86
2018-04-29T07:14:19.518Z,100341.03
2018-04-29T07:16:45.389Z,100344.14
2018-04-29T07:19:11.280Z,100338.81
2018-04-29T07:21:37.131Z,100337.26
2018-04-29T07:24:02.990Z,100340.21
2018-04-29T07:26:28.853Z,100341.89
2018-04-29T07:28:54.707Z,100340.08
2018-04-29T07:31:20.557Z,100340.52
2018-04-29T07:33:46.394Z,100333.92
2018-04-29T07:36:12.273Z,100332.92
2018-04-29T07:38:38.194Z,100333.83
2018-04-29T07:41:04.040Z,100328.13
2018-04-29T07:43:29.898Z,100322.56
2018-04-29T07:45:55.750Z,100310.02
2018-04-29T07:48:21.765Z,100300.03
2018-04-29T07:50:47.643Z,100302.06
2018-04-29T07:53:13.528Z,100306.48
2018-04-29T07:55:39.433Z,100306.13
2018-04-29T07:58:05.290Z,100311.21
2018-04-29T08:00:31.157Z,100307.67
2018-04-29T08:02:57.021Z,100298.87
2018-04-29T08:05:22.887Z,100296.05
2018-04-29T08:07:48.748Z,100293.11
2018-04-29T08:10:14.601Z,100294.23
2018-04-29T08:12:40.490Z,100307.73
2018-04-29T08:15:06.332Z,100301.13
2018-04-29T08:17:32.200Z,100302.66
2018-04-29T08:19:58.058Z,100309.23
2018-04-29T08:22:23.915Z,100311.23
2018-04-29T08:24:49.777Z,100315.55
2018-04-29T08:27:15.810Z,100316.80
2018-04-29T08:29:41.673Z,100318.31
2018-04-29T08:32:07.538Z,100308.28
2018-04-29T08:34:33.459Z,100299.66
2018-04-29T08:36:59.347Z,100304.06
2018-04-29T08:39:25.196Z,100310.49
2018-04-29T08:41:51.141Z,100306.48
2018-04-29T08:44:16.984Z,100298.77
2018-04-29T08:46:42.855Z,100301.75
2018-04-29T08:49:08.738Z,100301.63
2018-04-29T08:51:34.613Z,100301.87
2018-04-29T08:54:00.465Z,100304.09
2018-04-29T08:56:26.355Z,100292.78
2018-04-29T08:58:52.239Z,100286.05
2018-04-29T09:01:18.097Z,100291.13
2018-04-29T09:03:43.994Z,100284.20
2018-04-29T09:06:09.879Z,100287.26
2018-04-29T09:08:35.762Z,100287.94
2018-04-29T09:11:01.624Z,100289.91
2018-04-29T09:13:27.482Z,100288.51
2018-04-29T09:15:53.372Z,100285.27
2018-04-29T09:18:19.219Z,100279.64
2018-04-29T09:20:45.071Z,100282.84
2018-04-29T09:23:10.953Z,100283.25
2018-04-29T09:25:36.820Z,100286.11
2018-04-29T09:28:02.701Z,100293.89
2018-04-29T09:30:28.576Z,100281.03
2018-04-29T09:32:54.462Z,100280.37
2018-04-29T09:35:20.379Z,100289.25
2018-04-29T09:37:46.245Z,100276.11
2018-04-29T09:40:12.117Z,100276.70
2018-04-29T09:42:37.994Z,100287.49
2018-04-29T09:45:03.874Z,100272.06
2018-04-29T09:47:29.756Z,100263.76
2018-04-29T09:49:55.667Z,100263.46
2018-04-29T09:52:21.522Z,100276.30
2018-04-29T09:54:47.383Z,100268.92
2018-04-29T09:57:13.306Z,100270.09
2018-04-29T09:59:39.164Z,100264.03
2018-04-29T10:02:10.157Z,100257.30
2018-04-29T10:04:36.027Z,100263.52
2018-04-29T10:07:01.849Z,100275.16
2018-04-29T10:09:27.780Z,100263.89
2018-04-29T10:11:54.552Z,100263.81
2018-04-29T10:14:20.453Z,100261.28
2018-04-29T10:16:46.340Z,100261.75
2018-04-29T10:19:12.205Z,100256.34
2018-04-29T10:21:38.106Z,100251.07
2018-04-29T10:24:03.972Z,100257.52
2018-04-29T10:26:29.842Z,100247.63
2018-04-29T10:28:55.711Z,100241.64
2018-04-29T10:31:21.573Z,100254.54
2018-04-29T10:33:47.452Z,100261.02
2018-04-29T10:36:13.319Z,100253.97
2018-04-29T10:38:39.180Z,100246.68
2018-04-29T10:41:05.159Z,100250.69
2018-04-29T10:43:31.052Z,100246.14
2018-04-29T10:45:57.010Z,100251.70
2018-04-29T10:48:22.969Z,100249.89
2018-04-29T10:50:48.957Z,100244.77
2018-04-29T10:53:14.841Z,100232.80
2018-04-29T10:55:40.731Z,100226.69
2018-04-29T10:58:06.656Z,100227.19
2018-04-29T11:00:32.539Z,100221.60
2018-04-29T11:02:58.436Z,100225.09
2018-04-29T11:05:24.325Z,100223.81
2018-04-29T11:07:50.185Z,100223.52
2018-04-29T11:10:21.448Z,100228.36
2018-04-29T11:12:47.471Z,100227.14
2018-04-29T11:15:13.359Z,100228.87
2018-04-29T11:17:39.215Z,100223.59
2018-04-29T11:20:05.058Z,100224.73
2018-04-29T11:22:30.950Z,100230.94
2018-04-29T11:24:56.843Z,100225.16
2018-04-29T11:27:22.754Z,100216.89
2018-04-29T11:29:48.605Z,100218.62
2018-04-29T11:32:14.481Z,100219.57
2018-04-29T11:34:40.417Z,100217.31
2018-04-29T11:37:06.228Z,100217.06
2018-04-29T11:39:32.200Z,100211.22
2018-04-29T11:41:58.074Z,100197.59
2018-04-29T11:44:23.930Z,100202.71
2018-04-29T11:46:49.779Z,100201.02
2018-04-29T11:49:15.648Z,100191.85
2018-04-29T11:51:41.511Z,100187.74
2018-04-29T11:54:07.380Z,100189.13
2018-04-29T11:56:33.252Z,100187.28
2018-04-29T11:58:59.122Z,100186.88
2018-04-29T12:01:24.993Z,100183.09
2018-04-29T12:03:50.896Z,100179.66
2018-04-29T12:06:16.753Z,100183.84
2018-04-29T12:08:42.604Z,100187.89
2018-04-29T12:11:08.478Z,100187.66
2018-04-29T12:13:34.381Z,100179.84
2018-04-29T12:16:00.296Z,100177.44
2018-04-29T12:18:26.146Z,100173.45
2018-04-29T12:20:51.990Z,100171.03
2018-04-29T12:23:17.889Z,100173.20
2018-04-29T12:25:43.774Z,100164.33
2018-04-29T12:28:09.644Z,100153.45
2018-04-29T12:30:35.490Z,100150.09
2018-04-29T12:33:01.360Z,100149.59
2018-04-29T12:35:27.215Z,100141.68
2018-04-29T12:37:53.097Z,100144.57
2018-04-29T12:40:18.989Z,100141.54
2018-04-29T12:42:44.832Z,100143.73
2018-04-29T12:45:10.698Z,100139.57
2018-04-29T12:47:36.555Z,100137.80
2018-04-29T12:50:02.479Z,100129.66
2018-04-29T12:52:28.353Z,100119.84
2018-04-29T12:54:54.283Z,100120.18
2018-04-29T12:57:20.135Z,100108.26
2018-04-29T12:59:46.011Z,100109.22
2018-04-29T13:02:11.907Z,100104.76
2018-04-29T13:04:37.800Z,100094.58
2018-04-29T13:07:03.661Z,100079.64
2018-04-29T13:09:29.507Z,100070.15
2018-04-29T13:11:55.393Z,100067.16
2018-04-29T13:14:21.286Z,100062.48
2018-04-29T13:16:47.157Z,100063.40
2018-04-29T13:19:13.022Z,100047.37
2018-04-29T13:21:39.502Z,100042.59
2018-04-29T13:24:05.353Z,100026.28
2018-04-29T13:26:31.215Z,100027.55
2018-04-29T13:28:57.117Z,100018.91
2018-04-29T13:31:23.029Z,100012.47
2018-04-29T13:33:48.904Z,100015.50
2018-04-29T13:36:14.746Z,100011.38
2018-04-29T13:38:40.637Z,99993.52
2018-04-29T13:41:06.506Z,99986.45
2018-04-29T13:43:32.354Z,99993.07
2018-04-29T13:45:58.294Z,99982.30
2018-04-29T13:48:24.154Z,99987.43
2018-04-29T13:50:50.016Z,99982.26
2018-04-29T13:53:15.943Z,99984.88
2018-04-29T13:55:41.786Z,99975.63
2018-04-29T13:58:07.621Z,99975.58
2018-04-29T14:00:34.935Z,99975.98
2018-04-29T14:03:00.818Z,99969.30
2018-04-29T14:05:26.731Z,99960.67
2018-04-29T14:07:52.561Z,99954.75
2018-04-29T14:10:18.508Z,99963.23
2018-04-29T14:12:44.332Z,99949.07
2018-04-29T14:15:10.214Z,99946.63
2018-04-29T14:17:36.091Z,99939.97
2018-04-29T14:20:01.929Z,99933.87
2018-04-29T14:22:27.843Z,99930.55
2018-04-29T14:24:53.699Z,99932.52
2018-04-29T14:27:19.567Z,99923.05
2018-04-29T14:29:45.493Z,99927.22
2018-04-29T14:32:12.097Z,99923.24
2018-04-29T14:34:37.996Z,99916.52
2018-04-29T14:37:03.911Z,99921.48
2018-04-29T14:39:29.808Z,99910.53
2018-04-29T14:41:55.692Z,99911.26
2018-04-29T14:44:21.595Z,99908.45
2018-04-29T14:46:47.445Z,99908.27
2018-04-29T14:49:13.327Z,99901.50
2018-04-29T14:51:39.292Z,99903.00
2018-04-29T14:54:05.141Z,99896.71
2018-04-29T14:56:30.997Z,99901.84
2018-04-29T14:58:56.910Z,99898.98
2018-04-29T15:01:22.843Z,99891.30
2018-04-29T15:03:48.645Z,99895.75
2018-04-29T15:06:14.569Z,99892.69
2018-04-29T15:08:40.507Z,99889.88
2018-04-29T15:11:06.380Z,99885.02
2018-04-29T15:13:32.219Z,99883.07
2018-04-29T15:15:58.087Z,99876.91
2018-04-29T15:21:23.174Z,99880.14
2018-04-29T15:23:49.039Z,99886.63
2018-04-29T15:26:14.895Z,99880.63
2018-04-29T15:28:41.110Z,99885.28
2018-04-29T15:31:07.018Z,99883.11
2018-04-29T15:33:32.873Z,99867.65
2018-04-29T15:35:58.735Z,99874.52
2018-04-29T15:38:24.590Z,99864.05
2018-04-29T15:40:50.488Z,99865.92
2018-04-29T15:43:16.410Z,99862.88
2018-04-29T15:45:42.266Z,99868.12
2018-04-29T15:48:08.173Z,99859.27
2018-04-29T15:50:34.053Z,99856.97
2018-04-29T15:52:59.912Z,99859.70
2018-04-29T15:55:25.822Z,99853.59
2018-04-29T15:57:51.724Z,99847.55
2018-04-29T16:00:17.591Z,99848.75
2018-04-29T16:02:43.482Z,99846.58
2018-04-29T16:05:09.340Z,99853.30
2018-04-29T16:07:35.241Z,99853.88
2018-04-29T16:10:01.144Z,99851.09
2018-04-29T16:12:27.026Z,99864.72
2018-04-29T16:14:52.897Z,99876.55
2018-04-29T16:17:18.760Z,99878.95
2018-04-29T16:19:44.656Z,99878.95
2018-04-29T16:22:10.500Z,99879.23
2018-04-29T16:24:36.418Z,99877.50
2018-04-29T16:27:02.307Z,99873.09
2018-04-29T16:29:28.219Z,99873.55
2018-04-29T16:31:54.114Z,99863.64
2018-04-29T16:34:19.976Z,99872.55
2018-04-29T16:36:46.548Z,99865.42
2018-04-29T16:39:12.412Z,99862.11
2018-04-29T16:41:38.360Z,99861.81
2018-04-29T16:44:04.209Z,99864.27
2018-04-29T16:46:30.131Z,99858.93
2018-04-29T16:48:56.008Z,99856.41
2018-04-29T16:51:21.857Z,99852.75
2018-04-29T16:53:47.738Z,99844.12
2018-04-29T16:56:13.591Z,99841.41
2018-04-29T16:58:39.454Z,99834.05
2018-04-29T17:01:05.321Z,99828.92
2018-04-29T17:03:31.207Z,99834.53
2018-04-29T17:05:57.104Z,99821.70
2018-04-29T17:08:22.975Z,99815.11
2018-04-29T17:10:48.882Z,99813.91
2018-04-29T17:13:14.761Z,99807.10
2018-04-29T17:15:40.619Z,99808.47
2018-04-29T17:18:06.637Z,99803.48
2018-04-29T17:20:32.600Z,99793.46
2018-04-29T17:22:58.507Z,99787.47
2018-04-29T17:25:24.395Z,99784.56
2018-04-29T17:27:50.236Z,99783.68
2018-04-29T17:30:16.101Z,99789.08
2018-04-29T17:32:41.969Z,99780.66
2018-04-29T17:35:07.878Z,99782.92
2018-04-29T17:37:33.847Z,99781.17
2018-04-29T17:39:59.694Z,99777.30
2018-04-29T17:42:25.568Z,99776.12
2018-04-29T17:44:51.487Z,99771.22
2018-04-29T17:47:17.412Z,99758.94
2018-04-29T17:49:43.373Z,99768.46
2018-04-29T17:52:09.314Z,99763.73
2018-04-29T17:54:35.174Z,99762.09
2018-04-29T17:57:01.033Z,99764.30
2018-04-29T17:59:26.992Z,99759.73
2018-04-29T18:01:52.884Z,99759.52
2018-04-29T18:04:18.803Z,99751.97
2018-04-29T18:06:44.679Z,99751.53
2018-04-29T18:09:10.575Z,99755.83
2018-04-29T18:11:36.624Z,99754.72
2018-04-29T18:14:02.554Z,99754.41
2018-04-29T18:16:28.499Z,99753.12
2018-04-29T18:18:54.401Z,99746.99
2018-04-29T18:21:20.285Z,99750.45
2018-04-29T18:23:46.198Z,99748.67
2018-04-29T18:26:12.135Z,99754.26
2018-04-29T18:28:38.019Z,99757.80
2018-04-29T18:31:03.925Z,99752.20
2018-04-29T18:33:29.829Z,99748.83
2018-04-29T18:35:55.810Z,99748.23
2018-04-29T18:38:21.731Z,99745.41
2018-04-29T18:40:48.627Z,99740.91
2018-04-29T18:43:14.526Z,99732.47
2018-04-29T18:45:40.478Z,99734.27
2018-04-29T18:48:06.545Z,99733.92
2018-04-29T18:50:32.580Z,99734.94
2018-04-29T18:52:58.392Z,99731.83
2018-04-29T18:55:25.187Z,99734.31
2018-04-29T18:57:51.093Z,99725.41
2018-04-29T19:00:17.079Z,99728.73
2018-04-29T19:02:42.961Z,99729.23
2018-04-29T19:05:08.841Z,99726.25
2018-04-29T19:07:49.703Z,99714.33
2018-04-29T19:10:15.641Z,99718.70
2018-04-29T19:12:41.565Z,99719.41
2018-04-29T19:15:07.497Z,99709.86
2018-04-29T19:17:33.402Z,99716.14
2018-04-29T19:19:59.315Z,99714.73
2018-04-29T19:22:25.179Z,99713.67
2018-04-29T19:24:51.082Z,99712.55
2018-04-29T19:27:17.983Z,99716.36
2018-04-29T19:29:43.912Z,99713.50
2018-04-29T19:32:09.794Z,99711.05
2018-04-29T19:34:35.843Z,99707.71
2018-04-29T19:37:01.782Z,99709.50
2018-04-29T19:39:27.677Z,99698.52
2018-04-29T19:41:53.601Z,99701.45
2018-04-29T19:44:19.818Z,99697.83
2018-04-29T19:46:45.706Z,99693.55
2018-04-29T19:49:11.625Z,99695.14
2018-04-29T19:51:37.485Z,99693.82
2018-04-29T19:54:03.450Z,99683.23
2018-04-29T19:56:29.934Z,99686.55
2018-04-29T19:58:55.922Z,99689.28
2018-04-29T20:01:21.816Z,99678.70
2018-04-29T20:03:47.816Z,99682.90
2018-04-29T20:06:13.693Z,99679.84
2018-04-29T20:08:39.532Z,99678.95
2018-04-29T20:11:05.488Z,99675.29
2018-04-29T20:13:31.429Z,99671.16
2018-04-29T20:15:57.351Z,99671.45
2018-04-29T20:18:23.325Z,99666.75
2018-04-29T20:20:49.134Z,99663.77
2018-04-29T20:23:15.358Z,99662.30
2018-04-29T20:25:42.443Z,99653.73
2018-04-29T20:28:08.380Z,99649.67
2018-04-29T20:30:34.301Z,99651.11
2018-04-29T20:33:00.172Z,99650.86
2018-04-29T20:35:26.089Z,99641.86
2018-04-29T20:37:52.000Z,99638.77
2018-04-29T20:40:17.893Z,99623.62
2018-04-29T20:42:43.809Z,99612.72
2018-04-29T20:45:09.666Z,99614.70
2018-04-29T20:47:35.577Z,99613.05
2018-04-29T20:50:01.491Z,99608.64
2018-04-29T20:52:27.327Z,99606.02
2018-04-29T20:54:53.267Z,99593.72
2018-04-29T20:57:19.161Z,99592.79
2018-04-29T20:59:45.070Z,99592.82
2018-04-29T21:02:10.937Z,99590.06
2018-04-29T21:04:36.843Z,99588.09
2018-04-29T21:07:02.726Z,99589.09
2018-04-29T21:09:28.611Z,99583.31
2018-04-29T21:11:54.563Z,99572.30
2018-04-29T21:14:20.426Z,99566.64
2018-04-29T21:16:46.319Z,99562.12
2018-04-29T21:19:12.188Z,99560.54
2018-04-29T21:21:38.061Z,99554.01
2018-04-29T21:24:03.951Z,99549.78
2018-04-29T21:26:29.866Z,99544.30
2018-04-29T21:28:55.760Z,99539.78
2018-04-29T21:31:21.681Z,99536.63
2018-04-29T21:33:47.530Z,99528.20
2018-04-29T21:36:13.469Z,99522.84
2018-04-29T21:38:39.352Z,99517.97
2018-04-29T21:41:05.193Z,99513.46
2018-04-29T21:43:31.073Z,99515.66
2018-04-29T21:45:57.031Z,99506.19
2018-04-29T21:48:22.940Z,99505.29
2018-04-29T21:50:48.779Z,99497.44
2018-04-29T21:53:14.688Z,99497.69
2018-04-29T21:55:40.542Z,99487.94
2018-04-29T21:58:06.434Z,99489.33
2018-04-29T22:00:32.289Z,99475.89
2018-04-29T22:02:58.130Z,99470.45
2018-04-29T22:05:23.996Z,99467.23
2018-04-29T22:07:49.842Z,99470.34
2018-04-29T22:10:15.697Z,99456.41
2018-04-29T22:12:41.534Z,99455.62
2018-04-29T22:15:07.395Z,99452.05
2018-04-29T22:17:33.244Z,99444.73
2018-04-29T22:19:59.160Z,99445.30
2018-04-29T22:22:24.999Z,99433.99
2018-04-29T22:24:50.862Z,99435.13
2018-04-29T22:27:16.727Z,99428.69
2018-04-29T22:29:42.634Z,99434.70
2018-04-29T22:32:08.481Z,99436.37
2018-04-29T22:34:34.305Z,99423.53
2018-04-29T22:37:00.219Z,99418.11
2018-04-29T22:39:26.048Z,99420.16
2018-04-29T22:41:51.907Z,99418.11
2018-04-29T22:44:17.746Z,99420.30
2018-04-29T22:46:43.608Z,99417.39
2018-04-29T22:49:09.446Z,99413.55
2018-04-29T22:51:35.285Z,99410.75
2018-04-29T22:54:01.117Z,99400.37
2018-04-29T22:56:26.983Z,99399.55
2018-04-29T22:58:52.872Z,99396.12
2018-04-29T23:01:18.740Z,99391.56
2018-04-29T23:03:44.590Z,99392.76
2018-04-29T23:06:10.448Z,99394.48
2018-04-29T23:08:36.282Z,99389.54
2018-04-29T23:11:02.154Z,99387.75
2018-04-29T23:13:28.002Z,99395.05
2018-04-29T23:15:53.855Z,99385.56
2018-04-29T23:18:19.690Z,99383.27
2018-04-29T23:20:45.549Z,99381.42
2018-04-29T23:23:11.392Z,99378.41
2018-04-29T23:25:37.264Z,99370.03
2018-04-29T23:28:03.175Z,99355.74
2018-04-29T23:30:29.201Z,99355.84
2018-04-29T23:32:55.077Z,99353.95
2018-04-29T23:35:20.979Z,99350.55
2018-04-29T23:37:46.823Z,99351.41
2018-04-29T23:40:12.680Z,99351.05
2018-04-29T23:42:38.556Z,99347.90
2018-04-29T23:45:04.408Z,99346.75
2018-04-29T23:47:30.280Z,99351.80
2018-04-29T23:49:56.121Z,99347.72
2018-04-29T23:52:21.980Z,99343.14
2018-04-29T23:54:47.841Z,99336.09
2018-04-29T23:57:13.686Z,99327.53
2018-04-29T23:59:39.575Z,99318.19
